RCTP/TPE METAR and TAF weather

Enter ICAO airport designator
Station Type Date Time Source
RCTP METAR 2020/10/22 03:00 UTC NOAA

RCTP 220300Z 01017KT 3500 -RA BR SCT003 BKN005 BKN016 22/20 Q1012 WS R05L NOSIG RMK A2989 RA AMT 2.4MM


Station Type Date Time Source
RCTP Decoded METAR 2020/10/22 03:00 UTC NOAA

Chiang Kai Shek, Taiwan (RCTP) 25-05N 121-13E
Oct 21, 2020 - 11:00 PM EDT / 2020.10.22 0300 UTC
Wind: from the N (010 degrees) at 20 MPH (17 KT):0
Visibility: 2 mile(s):0
Sky conditions: mostly cloudy
Weather: light rain; mist
Temperature: 71 F (22 C)
Dew Point: 68 F (20 C)
Relative Humidity: 88%
Pressure (altimeter): 29.88 in. Hg (1012 hPa)
ob: RCTP 220300Z 01017KT 3500 -RA BR SCT003 BKN005 BKN016 22/20 Q1012 WS R05L NOSIG RMK A2989 RA AMT 2.4MM
cycle: 3

Station Type Date Time Source
RCTP TAF 2020/10/21 18:06 UTC NOAA

TAF RCTP 211700Z 2118/2224 03020KT 6000 SCT005 BKN007 BKN030
TEMPO 2118/2124 02023G33KT 3000 RA BR SCT003 BKN004 BKN020
TEMPO 2200/2206 04025G35KT SCT005 BKN011 BKN030
BECMG 2206/2208 SCT005 BKN022 BKN040
BECMG 2212/2214 FEW010 BKN032

Example: see airport list